.
WxDataArchive / Data Records for 2006-06-20
2006-06-19 June 2006 2006-06-21

Data Records for Tuesday, 20 June 2006

Time	Temp	Chill	HIndex	Humid	Dewpt	 Wind 	HiWind	WindDir	Rain 	Barom 
-----	----	-----	------	-----	-----	------	------	-------	-----	----- 
00:00	67.9	67.9	67.9	73	58.9	0	0	---	0.00	29.907 
00:05	67.6	67.6	67.6	75	59.4	0	0	---	0.00	29.907 
00:10	67.1	67.1	67.1	77	59.6	0	0	---	0.00	29.907 
00:15	66.9	66.9	66.9	79	60.2	0	0	---	0.00	29.908 
00:20	66.6	66.6	66.6	81	60.6	0	0	---	0.00	29.908 
00:25	66.4	66.4	66.4	83	61.1	0	0	---	0.00	29.908 
00:30	66.3	66.3	66.3	83	61.0	0	0	---	0.00	29.910 
00:35	66.1	66.1	66.1	84	61.1	0	0	---	0.00	29.910 
00:40	66.0	66.0	66.0	84	61.0	0	0	---	0.00	29.910 
00:45	65.8	65.8	65.8	84	60.8	0	0	---	0.00	29.905 
00:50	65.8	65.8	65.8	84	60.8	0	0	---	0.00	29.905 
00:55	65.6	65.6	65.6	84	60.6	0	0	---	0.00	29.905 
01:00	65.5	65.5	65.5	83	60.2	0	0	---	0.00	29.908 
01:05	65.3	65.3	65.3	83	60.0	0	0	---	0.00	29.908 
01:10	65.2	65.2	65.2	83	59.9	0	0	---	0.00	29.908 
01:15	65.0	65.0	65.0	84	60.0	0	0	---	0.00	29.908 
01:20	64.8	64.8	64.8	84	59.8	0	0	---	0.00	29.908 
01:25	64.7	64.7	64.7	84	59.7	0	0	---	0.00	29.908 
01:30	64.5	64.5	64.5	84	59.6	0	0	---	0.00	29.908 
01:35	64.3	64.3	64.3	84	59.4	0	0	---	0.00	29.908 
01:40	64.2	64.2	64.2	84	59.3	0	0	---	0.00	29.908 
01:45	64.0	64.0	64.0	85	59.4	0	0	---	0.00	29.908 
01:50	63.9	63.9	63.9	85	59.3	0	0	---	0.00	29.908 
01:55	63.7	63.7	63.7	85	59.1	0	0	---	0.00	29.908 
02:00	63.5	63.5	63.5	85	58.9	0	0	---	0.00	29.910 
02:05	63.4	63.4	63.4	85	58.8	0	0	---	0.00	29.910 
02:10	63.2	63.2	63.2	85	58.6	0	0	---	0.00	29.910 
02:15	63.1	63.1	63.1	85	58.5	0	0	---	0.00	29.908 
02:20	63.1	63.1	63.1	86	58.8	0	0	---	0.00	29.908 
02:25	62.9	62.9	62.9	87	59.0	0	0	---	0.00	29.908 
02:30	62.7	62.7	62.7	87	58.8	0	0	---	0.00	29.909 
02:35	62.6	62.6	62.6	88	59.0	0	0	---	0.00	29.909 
02:40	62.4	62.4	62.4	88	58.8	0	0	---	0.00	29.909 
02:45	62.1	62.1	62.1	88	58.5	0	0	---	0.00	29.914 
02:50	62.0	62.0	62.0	88	58.4	0	0	---	0.00	29.914 
02:55	61.8	61.8	61.8	88	58.2	0	0	---	0.00	29.914 
03:00	61.6	61.6	61.6	88	58.0	0	0	---	0.00	29.915 
03:05	61.6	61.6	61.6	89	58.3	0	0	---	0.00	29.915 
03:10	61.5	61.5	61.5	89	58.2	0	0	---	0.00	29.915 
03:15	61.3	61.3	61.3	90	58.3	0	0	---	0.00	29.914 
03:20	61.3	61.3	61.3	90	58.3	0	0	---	0.00	29.914 
03:25	61.2	61.2	61.2	90	58.2	0	0	---	0.00	29.914 
03:30	61.0	61.0	61.0	90	58.0	0	0	---	0.00	29.915 
03:35	60.9	60.9	60.9	90	57.9	0	0	---	0.00	29.915 
03:40	60.9	60.9	60.9	90	57.9	0	0	---	0.00	29.915 
03:45	60.7	60.7	60.7	90	57.7	0	0	---	0.00	29.913 
03:50	60.7	60.7	60.7	90	57.7	0	0	---	0.00	29.913 
03:55	60.5	60.5	60.5	90	57.5	0	0	---	0.00	29.913 
04:00	60.4	60.4	60.4	90	57.4	0	0	---	0.00	29.913 
04:05	60.2	60.2	60.2	90	57.3	0	0	---	0.00	29.913 
04:10	60.2	60.2	60.2	90	57.3	0	0	---	0.00	29.913 
04:15	60.1	60.1	60.1	91	57.5	0	0	---	0.00	29.917 
04:20	60.1	60.1	60.1	91	57.5	0	0	---	0.00	29.917 
04:25	60.1	60.1	60.1	91	57.5	0	0	---	0.00	29.917 
04:30	60.1	60.1	60.1	91	57.5	0	0	---	0.00	29.919 
04:35	60.2	60.2	60.2	90	57.3	0	0	---	0.00	29.919 
04:40	60.1	60.1	60.1	90	57.2	0	0	---	0.00	29.919 
04:45	60.1	60.1	60.1	90	57.2	0	0	---	0.00	29.913 
04:50	59.9	59.9	59.9	90	57.0	0	0	---	0.00	29.913 
04:55	59.8	59.8	59.8	90	56.9	0	0	---	0.00	29.913 
05:00	59.6	59.6	59.6	90	56.7	0	0	---	0.00	29.925 
05:05	59.5	59.5	59.5	90	56.6	0	0	---	0.00	29.925 
05:10	59.3	59.3	59.3	90	56.4	0	0	---	0.00	29.925 
05:15	59.3	59.3	59.3	91	56.7	0	0	---	0.00	29.923 
05:20	59.3	59.3	59.3	91	56.7	0	0	---	0.00	29.923 
05:25	59.3	59.3	59.3	91	56.7	0	0	---	0.00	29.923 
05:30	59.3	59.3	59.3	91	56.7	0	0	---	0.00	29.928 
05:35	59.3	59.3	59.3	91	56.7	0	0	---	0.00	29.928 
05:40	59.2	59.2	59.2	91	56.6	0	0	---	0.00	29.928 
05:45	59.2	59.2	59.2	91	56.6	0	0	---	0.00	29.932 
05:50	59.2	59.2	59.2	91	56.6	0	0	---	0.00	29.932 
05:55	59.2	59.2	59.2	91	56.6	0	0	---	0.00	29.932 
06:00	59.2	59.2	59.2	91	56.6	0	0	---	0.00	29.935 
06:05	59.0	59.0	59.0	91	56.4	0	0	---	0.00	29.935 
06:10	59.0	59.0	59.0	91	56.4	0	0	---	0.00	29.935 
06:15	58.9	58.9	58.9	91	56.3	0	0	---	0.00	29.946 
06:20	58.9	58.9	58.9	91	56.3	0	0	---	0.00	29.946 
06:25	58.9	58.9	58.9	92	56.6	0	0	---	0.00	29.946 
06:30	58.9	58.9	58.9	92	56.6	0	0	---	0.00	29.949 
06:35	59.0	59.0	59.0	92	56.7	0	0	---	0.00	29.949 
06:40	59.2	59.2	59.2	92	56.9	0	0	---	0.00	29.949 
06:45	59.2	59.2	59.2	92	56.9	0	0	---	0.00	29.954 
06:50	59.3	59.3	59.3	92	57.0	0	0	---	0.00	29.954 
06:55	59.5	59.5	59.5	92	57.2	0	0	---	0.00	29.954 
07:00	59.9	59.9	59.9	92	57.6	0	0	---	0.00	29.959 
07:05	60.4	60.4	60.4	91	57.8	0	1	248	0.00	29.959 
07:10	61.2	61.2	61.2	89	57.9	0	1	248	0.00	29.959 
07:15	62.0	62.0	62.0	87	58.1	0	2	248	0.00	29.962 
07:20	62.6	62.6	62.6	85	58.0	0	1	248	0.00	29.962 
07:25	63.1	63.1	63.1	84	58.2	0	1	248	0.00	29.962 
07:30	63.5	63.5	63.5	83	58.2	0	1	248	0.00	29.966 
07:35	64.2	64.2	64.2	82	58.6	0	1	248	0.00	29.966 
07:40	64.7	64.7	64.7	80	58.4	0	1	248	0.00	29.966 
07:45	65.3	65.3	65.3	79	58.6	0	1	248	0.00	29.974 
07:50	65.8	65.8	65.8	78	58.7	0	1	248	0.00	29.974 
07:55	66.4	66.4	66.4	77	59.0	0	1	248	0.00	29.974 
08:00	66.8	66.8	66.8	76	59.0	0	1	248	0.00	29.980 
08:05	67.1	67.1	67.1	75	58.9	0	2	248	0.00	29.980 
08:10	67.6	67.6	67.6	73	58.6	0	1	270	0.00	29.980 
08:15	67.8	67.8	67.8	73	58.8	1	2	292	0.00	29.983 
08:20	68.1	68.1	68.1	72	58.7	0	2	315	0.00	29.983 
08:25	68.4	68.4	68.4	73	59.4	0	1	315	0.00	29.983 
08:30	68.8	68.8	68.8	72	59.4	0	2	315	0.00	29.974 
08:35	68.9	68.9	68.9	71	59.1	1	2	315	0.00	29.974 
08:40	69.4	69.4	69.4	71	59.6	0	2	292	0.00	29.974 
08:45	69.6	69.6	69.6	70	59.4	0	2	292	0.00	29.975 
08:50	70.3	70.3	70.3	69	59.6	0	3	0	0.00	29.975 
08:55	70.6	70.6	70.6	70	60.3	0	4	0	0.00	29.975 
09:00	70.8	70.8	70.8	69	60.1	0	4	22	0.00	29.972 
09:05	71.3	71.3	71.3	67	59.8	0	2	45	0.00	29.972 
09:10	71.8	71.8	71.8	67	60.2	0	2	45	0.00	29.972 
09:15	72.5	72.5	72.5	65	60.0	1	3	45	0.00	29.969 
09:20	72.8	72.8	72.8	63	59.5	1	2	45	0.00	29.969 
09:25	72.8	72.8	72.8	63	59.5	2	5	90	0.00	29.969 
09:30	72.5	72.5	72.5	65	60.0	1	4	90	0.00	29.969 
09:35	72.8	72.8	72.8	66	60.8	0	2	90	0.00	29.969 
09:40	73.2	73.2	73.2	65	60.7	1	3	90	0.00	29.969 
09:45	73.5	73.5	73.5	64	60.6	1	3	90	0.00	29.968 
09:50	73.5	73.5	73.5	62	59.7	0	3	68	0.00	29.968 
09:55	74.2	74.2	74.2	65	61.7	0	3	68	0.00	29.968 
10:00	74.2	74.2	74.2	64	61.2	2	4	90	0.00	29.969 
10:05	74.0	74.0	74.0	66	61.9	1	4	90	0.00	29.969 
10:10	74.2	74.2	74.2	62	60.3	1	3	90	0.00	29.969 
10:15	74.6	74.6	74.6	62	60.7	0	2	90	0.00	29.971 
10:20	74.6	74.6	74.6	63	61.2	1	3	90	0.00	29.971 
10:25	74.9	74.9	74.9	65	62.3	0	1	90	0.00	29.971 
10:30	75.4	75.4	77.5	62	61.5	0	1	90	0.00	29.967 
10:35	76.0	76.0	78.0	60	61.1	0	2	90	0.00	29.967 
10:40	76.3	76.3	78.2	59	60.9	1	3	90	0.00	29.967 
10:45	76.3	76.3	78.2	59	60.9	2	4	90	0.00	29.970 
10:50	76.1	76.1	78.1	58	60.2	2	3	90	0.00	29.970 
10:55	76.3	76.3	78.2	62	62.3	0	2	90	0.00	29.970 
11:00	76.5	76.5	78.4	58	60.6	1	3	90	0.00	29.971 
11:05	76.7	76.7	78.5	57	60.3	1	3	68	0.00	29.971 
11:10	77.0	77.0	78.8	59	61.6	0	2	45	0.00	29.971 
11:15	77.2	77.2	78.9	58	61.3	0	2	338	0.00	29.980 
11:20	77.4	77.4	79.1	59	61.9	1	2	0	0.00	29.980 
11:25	77.4	77.4	79.1	57	61.0	0	2	0	0.00	29.980 
11:30	77.9	77.9	79.5	57	61.4	0	2	0	0.00	29.982 
11:35	78.3	78.3	79.8	57	61.8	1	2	0	0.00	29.982 
11:40	78.5	78.5	79.9	56	61.5	0	2	270	0.00	29.982 
11:45	78.8	78.8	80.1	54	60.7	1	4	270	0.00	29.985 
11:50	77.9	77.9	79.4	55	60.4	1	4	45	0.00	29.985 
11:55	77.7	77.7	79.4	61	63.2	1	3	45	0.00	29.985 
12:00	78.3	78.3	79.7	54	60.3	1	3	45	0.00	29.980 
12:05	78.8	78.8	80.1	54	60.7	2	4	112	0.00	29.980 
12:10	79.0	79.0	80.4	56	61.9	0	3	112	0.00	29.980 
12:15	78.8	78.8	80.2	56	61.8	1	2	0	0.00	29.982 
12:20	79.0	79.0	80.3	54	60.9	1	4	90	0.00	29.982 
12:25	79.6	79.6	81.1	57	63.0	1	4	68	0.00	29.982 
12:30	79.8	79.8	80.9	53	61.1	3	6	90	0.00	29.988 
12:35	79.4	79.4	80.7	55	61.8	1	3	90	0.00	29.988 
12:40	79.8	79.8	80.6	50	59.5	1	3	338	0.00	29.988 
12:45	79.8	79.8	80.8	52	60.6	1	3	248	0.00	29.988 
12:50	78.8	78.8	80.1	54	60.7	0	1	315	0.00	29.988 
12:55	77.7	77.7	79.1	52	58.6	0	1	315	0.00	29.988 
13:00	77.9	77.9	79.4	55	60.4	1	3	90	0.00	29.990 
13:05	78.3	78.3	79.6	53	59.7	0	1	90	0.00	29.990 
13:10	78.6	78.6	79.7	50	58.4	1	3	0	0.00	29.990 
13:15	78.8	78.8	79.7	49	58.0	1	3	0	0.00	29.991 
13:20	79.0	79.0	80.0	51	59.3	1	3	292	0.00	29.991 
13:25	78.6	78.6	79.7	50	58.4	1	2	338	0.00	29.991 
13:30	78.1	78.1	79.5	54	60.1	1	3	248	0.00	29.992 
13:35	78.8	78.8	79.7	49	58.0	1	3	315	0.00	29.992 
13:40	79.6	79.6	80.5	51	59.9	1	2	315	0.00	29.992 
13:45	79.9	79.9	80.6	49	59.0	1	2	315	0.00	29.989 
13:50	79.8	79.8	80.4	47	57.8	0	2	315	0.00	29.989 
13:55	80.5	80.5	80.8	46	57.8	2	4	292	0.00	29.989 
14:00	81.2	81.2	81.5	46	58.4	1	2	270	0.00	29.986 
14:05	81.6	81.6	81.8	46	58.8	0	2	315	0.00	29.986 
14:10	81.8	81.8	82.1	47	59.6	1	3	270	0.00	29.986 
14:15	81.6	81.6	81.5	43	56.9	1	2	292	0.00	29.988 
14:20	81.2	81.2	80.9	41	55.2	1	2	338	0.00	29.988 
14:25	82.0	82.0	82.6	49	60.9	1	4	270	0.00	29.988 
14:30	82.4	82.4	81.9	41	56.3	2	6	270	0.00	29.979 
14:35	82.4	82.4	81.9	41	56.3	2	4	270	0.00	29.979 
14:40	82.2	82.2	81.9	42	56.8	1	3	292	0.00	29.979 
14:45	82.2	82.2	81.9	42	56.8	1	3	248	0.00	29.977 
14:50	81.8	81.8	81.5	42	56.4	1	4	270	0.00	29.977 
14:55	81.4	81.4	81.3	43	56.7	1	2	0	0.00	29.977 
15:00	81.8	81.8	82.0	46	59.0	1	3	68	0.00	29.978 
15:05	81.8	81.8	81.6	43	57.1	1	2	68	0.00	29.978 
15:10	82.0	82.0	82.2	46	59.1	1	2	45	0.00	29.978 
15:15	82.4	82.4	83.0	49	61.3	1	2	315	0.00	29.977 
15:20	82.4	82.4	82.0	42	57.0	2	5	315	0.00	29.977 
15:25	82.0	82.0	81.3	39	54.6	1	4	270	0.00	29.977 
15:30	81.4	81.4	81.1	41	55.4	1	4	315	0.00	29.978 
15:35	81.4	81.4	81.3	43	56.7	1	2	315	0.00	29.978 
15:40	81.8	81.8	81.3	40	55.1	1	4	270	0.00	29.978 
15:45	81.6	81.6	81.1	40	54.9	1	3	270	0.00	29.978 
15:50	81.8	81.8	81.9	45	58.4	1	3	270	0.00	29.978 
15:55	81.8	81.8	81.4	41	55.8	1	2	0	0.00	29.978 
16:00	81.8	81.8	81.9	45	58.4	1	4	90	0.00	29.978 
16:05	82.0	82.0	81.7	42	56.6	1	2	90	0.00	29.978 
16:10	81.6	81.6	81.2	41	55.6	1	3	315	0.00	29.978 
16:15	81.6	81.6	81.2	41	55.6	1	4	270	0.00	29.976 
16:20	81.4	81.4	81.0	40	54.7	1	3	248	0.00	29.976 
16:25	81.2	81.2	80.8	40	54.6	1	2	270	0.00	29.976 
16:30	81.2	81.2	80.8	40	54.6	0	2	270	0.00	29.975 
16:35	81.6	81.6	81.6	44	57.5	1	3	338	0.00	29.975 
16:40	81.4	81.4	81.3	43	56.7	1	2	270	0.00	29.975 
16:45	81.4	81.4	81.3	43	56.7	0	2	270	0.00	29.967 
16:50	81.4	81.4	81.2	42	56.1	0	3	22	0.00	29.967 
16:55	81.2	81.2	81.2	44	57.2	0	1	22	0.00	29.967 
17:00	81.1	81.1	81.4	46	58.3	0	2	0	0.00	29.975 
17:05	80.9	80.9	81.0	44	56.9	1	3	45	0.00	29.975 
17:10	80.9	80.9	81.1	45	57.5	0	3	45	0.00	29.975 
17:15	80.7	80.7	80.7	43	56.1	1	4	45	0.00	29.976 
17:20	80.5	80.5	80.6	44	56.6	0	2	45	0.00	29.976 
17:25	80.7	80.7	80.5	41	54.8	1	3	338	0.00	29.976 
17:30	81.1	81.1	80.7	40	54.5	1	3	270	0.00	29.977 
17:35	81.6	81.6	81.3	42	56.3	0	2	292	0.00	29.977 
17:40	82.0	82.0	81.3	39	54.6	0	2	315	0.00	29.977 
17:45	82.0	82.0	81.5	40	55.3	1	5	270	0.00	29.978 
17:50	82.0	82.0	81.6	41	55.9	0	2	292	0.00	29.978 
17:55	81.6	81.6	81.3	42	56.3	1	4	248	0.00	29.978 
18:00	81.1	81.1	80.7	40	54.5	1	3	270	0.00	29.978 
18:05	80.9	80.9	80.7	41	55.0	2	4	315	0.00	29.978 
18:10	80.5	80.5	80.5	42	55.3	1	2	270	0.00	29.978 
18:15	80.3	80.3	80.3	42	55.1	0	1	292	0.00	29.976 
18:20	80.3	80.3	80.4	43	55.7	0	1	292	0.00	29.976 
18:25	80.1	80.1	80.2	42	54.9	0	1	292	0.00	29.976 
18:30	79.9	79.9	80.1	43	55.4	0	1	292	0.00	29.962 
18:35	79.8	79.8	80.0	43	55.3	0	0	---	0.00	29.962 
18:40	79.6	79.6	79.9	43	55.1	0	2	292	0.00	29.962 
18:45	79.6	79.6	79.8	42	54.5	0	3	112	0.00	29.952 
18:50	79.4	79.4	79.8	43	54.9	0	2	112	0.00	29.952 
18:55	79.2	79.2	79.8	46	56.6	0	1	90	0.00	29.952 
19:00	79.0	79.0	79.7	46	56.4	0	1	90	0.00	29.966 
19:05	79.0	79.0	79.7	46	56.4	0	1	90	0.00	29.966 
19:10	78.8	78.8	79.6	46	56.2	0	0	---	0.00	29.966 
19:15	78.6	78.6	79.4	46	56.1	0	1	90	0.00	29.957 
19:20	78.6	78.6	79.5	47	56.7	0	0	---	0.00	29.957 
19:25	78.5	78.5	79.5	48	57.2	0	1	90	0.00	29.957 
19:30	78.3	78.3	79.2	46	55.8	0	1	90	0.00	29.944 
19:35	78.1	78.1	79.0	45	55.0	0	1	90	0.00	29.944 
19:40	77.9	77.9	79.0	46	55.4	0	1	90	0.00	29.944 
19:45	77.7	77.7	78.9	46	55.2	0	0	---	0.00	29.951 
19:50	77.7	77.7	78.9	46	55.2	0	0	---	0.00	29.951 
19:55	77.6	77.6	78.9	48	56.3	0	2	90	0.00	29.951 
20:00	77.4	77.4	78.7	46	55.0	2	3	90	0.00	29.937 
20:05	77.4	77.4	78.8	50	57.3	1	2	90	0.00	29.937 
20:10	77.2	77.2	78.7	48	56.0	0	2	90	0.00	29.937 
20:15	77.2	77.2	78.7	50	57.1	0	1	90	0.00	29.941 
20:20	77.0	77.0	78.6	51	57.5	0	1	90	0.00	29.941 
20:25	76.8	76.8	78.5	50	56.7	1	3	90	0.00	29.941 
20:30	76.7	76.7	78.4	51	57.2	1	4	90	0.00	29.929 
20:35	76.7	76.7	78.5	52	57.7	1	3	90	0.00	29.929 
20:40	76.5	76.5	78.4	53	58.1	1	2	90	0.00	29.929 
20:45	76.3	76.3	78.2	53	57.9	1	3	90	0.00	29.937 
20:50	76.1	76.1	78.1	54	58.2	0	2	90	0.00	29.937 
20:55	76.0	76.0	78.1	54	58.1	1	3	90	0.00	29.937 
21:00	75.8	75.8	78.0	55	58.5	0	2	90	0.00	29.940 
21:05	75.6	75.6	77.8	55	58.3	1	2	90	0.00	29.940 
21:10	75.6	75.6	77.8	56	58.8	0	2	90	0.00	29.940 
21:15	75.4	75.4	77.7	57	59.1	0	1	90	0.00	29.939 
21:20	75.3	75.3	77.6	57	59.0	0	0	---	0.00	29.939 
21:25	75.1	75.1	77.5	57	58.8	0	2	90	0.00	29.939 
21:30	74.9	74.9	74.9	56	58.1	0	1	90	0.00	29.939 
21:35	74.9	74.9	74.9	57	58.6	0	1	90	0.00	29.939 
21:40	74.9	74.9	74.9	57	58.6	0	1	90	0.00	29.939 
21:45	74.9	74.9	74.9	56	58.1	0	1	90	0.00	29.942 
21:50	74.6	74.6	74.6	58	58.8	0	1	90	0.00	29.942 
21:55	74.0	74.0	74.0	58	58.3	0	0	---	0.00	29.942 
22:00	73.7	73.7	73.7	58	58.0	0	0	---	0.00	29.955 
22:05	73.2	73.2	73.2	59	58.0	0	0	---	0.00	29.955 
22:10	72.7	72.7	72.7	61	58.5	0	0	---	0.00	29.955 
22:15	72.3	72.3	72.3	62	58.5	0	0	---	0.00	29.961 
22:20	72.0	72.0	72.0	63	58.7	0	0	---	0.00	29.961 
22:25	71.6	71.6	71.6	64	58.8	0	0	---	0.00	29.961 
22:30	71.3	71.3	71.3	65	58.9	0	0	---	0.00	29.971 
22:35	70.9	70.9	70.9	66	59.0	0	0	---	0.00	29.971 
22:40	70.8	70.8	70.8	67	59.3	0	0	---	0.00	29.971 
22:45	70.4	70.4	70.4	67	58.9	0	0	---	0.00	29.979 
22:50	70.3	70.3	70.3	67	58.8	0	0	---	0.00	29.979 
22:55	69.9	69.9	69.9	67	58.4	0	0	---	0.00	29.979 
23:00	69.6	69.6	69.6	69	59.0	0	0	---	0.00	29.989 
23:05	69.4	69.4	69.4	69	58.8	0	0	---	0.00	29.989 
23:10	69.1	69.1	69.1	69	58.5	0	0	---	0.00	29.989 
23:15	68.9	68.9	68.9	70	58.7	0	0	---	0.00	29.986 
23:20	68.6	68.6	68.6	72	59.2	0	0	---	0.00	29.986 
23:25	68.3	68.3	68.3	72	58.9	0	0	---	0.00	29.986 
23:30	68.1	68.1	68.1	73	59.1	0	0	---	0.00	29.986 
23:35	67.8	67.8	67.8	73	58.8	0	0	---	0.00	29.986 
23:40	67.6	67.6	67.6	74	59.0	0	0	---	0.00	29.986 
23:45	67.4	67.4	67.4	75	59.2	0	0	---	0.00	29.980 
23:50	67.4	67.4	67.4	75	59.2	0	0	---	0.00	29.980 
23:55	67.3	67.3	67.3	76	59.5	0	0	---	0.00	29.980 

CoCoRaHS
IN-AL-39
A2 Web Hosting
Creative Commons License
GoDaddy
Look for:

loaded 2017-10-20 19:40:29 • last modified 2010-11-18 10:43:29
Privacy PolicyDisclaimer
• wx.awcolley.com is powered by PmWiki v.2002016 •
• all content (unless otherwise noted) © 2017 A W Colley